sensor_id;sensor_type;location;lat;lon;timestamp;pressure;altitude;pressure_sealevel;temperature;humidity
59831;BME280;45711;50.108;13.712;2023-02-04T00:02:25;98025.53;;;3.57;83.54
59831;BME280;45711;50.108;13.712;2023-02-04T00:04:50;98026.81;;;3.54;80.63
59831;BME280;45711;50.108;13.712;2023-02-04T00:07:16;98034.28;;;3.57;81.08
59831;BME280;45711;50.108;13.712;2023-02-04T00:09:42;98040.38;;;3.58;83.25
59831;BME280;45711;50.108;13.712;2023-02-04T00:12:09;98044.41;;;3.60;81.95
59831;BME280;45711;50.108;13.712;2023-02-04T00:14:35;98046.59;;;3.63;84.64
59831;BME280;45711;50.108;13.712;2023-02-04T00:17:00;98029.22;;;3.67;82.26
59831;BME280;45711;50.108;13.712;2023-02-04T00:19:26;98033.16;;;3.53;80.54
59831;BME280;45711;50.108;13.712;2023-02-04T00:21:54;98038.75;;;3.57;81.85
59831;BME280;45711;50.108;13.712;2023-02-04T00:24:20;98040.94;;;3.60;82.77
59831;BME280;45711;50.108;13.712;2023-02-04T00:26:45;98043.84;;;3.58;83.83
59831;BME280;45711;50.108;13.712;2023-02-04T00:29:13;98048.19;;;3.64;85.24
59831;BME280;45711;50.108;13.712;2023-02-04T00:31:39;98051.53;;;3.60;83.06
59831;BME280;45711;50.108;13.712;2023-02-04T00:34:04;98052.13;;;3.62;83.23
59831;BME280;45711;50.108;13.712;2023-02-04T00:36:30;98055.78;;;3.61;83.15
59831;BME280;45711;50.108;13.712;2023-02-04T00:38:55;98066.84;;;3.58;80.98
59831;BME280;45711;50.108;13.712;2023-02-04T00:41:21;98086.75;;;3.60;82.28
59831;BME280;45711;50.108;13.712;2023-02-04T00:43:47;98077.56;;;3.63;82.70
59831;BME280;45711;50.108;13.712;2023-02-04T00:46:13;98085.59;;;3.68;83.49
59831;BME280;45711;50.108;13.712;2023-02-04T00:48:39;98083.06;;;3.61;81.38
59831;BME280;45711;50.108;13.712;2023-02-04T00:51:05;98083.53;;;3.58;80.53
59831;BME280;45711;50.108;13.712;2023-02-04T00:53:30;98094.69;;;3.60;84.20
59831;BME280;45711;50.108;13.712;2023-02-04T00:55:56;98100.44;;;3.57;80.57
59831;BME280;45711;50.108;13.712;2023-02-04T00:58:21;98092.38;;;3.64;83.06
59831;BME280;45711;50.108;13.712;2023-02-04T01:00:47;98080.88;;;3.58;83.99
59831;BME280;45711;50.108;13.712;2023-02-04T01:03:14;98089.88;;;3.57;83.60
59831;BME280;45711;50.108;13.712;2023-02-04T01:05:39;98087.66;;;3.54;81.94
59831;BME280;45711;50.108;13.712;2023-02-04T01:08:05;98117.81;;;3.53;84.08
59831;BME280;45711;50.108;13.712;2023-02-04T01:10:30;98118.81;;;3.52;84.57
59831;BME280;45711;50.108;13.712;2023-02-04T01:12:56;98105.16;;;3.55;81.34
59831;BME280;45711;50.108;13.712;2023-02-04T01:15:21;98112.06;;;3.56;80.54
59831;BME280;45711;50.108;13.712;2023-02-04T01:17:47;98121.63;;;3.57;83.23
59831;BME280;45711;50.108;13.712;2023-02-04T01:20:15;98140.16;;;3.57;82.26
59831;BME280;45711;50.108;13.712;2023-02-04T01:22:40;98161.44;;;3.62;83.39
59831;BME280;45711;50.108;13.712;2023-02-04T01:25:06;98166.94;;;3.61;82.12
59831;BME280;45711;50.108;13.712;2023-02-04T01:27:32;98169.38;;;3.62;80.33
59831;BME280;45711;50.108;13.712;2023-02-04T01:29:58;98178.31;;;3.61;83.83
59831;BME280;45711;50.108;13.712;2023-02-04T01:32:23;98184.09;;;3.58;84.98
59831;BME280;45711;50.108;13.712;2023-02-04T01:34:49;98210.91;;;3.62;84.63
59831;BME280;45711;50.108;13.712;2023-02-04T01:37:16;98211.00;;;3.55;84.47
59831;BME280;45711;50.108;13.712;2023-02-04T01:39:42;98233.22;;;3.54;84.82
59831;BME280;45711;50.108;13.712;2023-02-04T01:42:08;98251.81;;;3.47;86.54
59831;BME280;45711;50.108;13.712;2023-02-04T01:44:34;98253.66;;;3.47;87.33
59831;BME280;45711;50.108;13.712;2023-02-04T01:46:59;98288.81;;;3.36;88.16
59831;BME280;45711;50.108;13.712;2023-02-04T01:49:25;98290.56;;;3.42;87.44
59831;BME280;45711;50.108;13.712;2023-02-04T01:51:51;98299.53;;;3.04;87.87
59831;BME280;45711;50.108;13.712;2023-02-04T01:54:18;98312.91;;;2.91;87.06
59831;BME280;45711;50.108;13.712;2023-02-04T01:56:46;98309.84;;;2.69;88.23
59831;BME280;45711;50.108;13.712;2023-02-04T01:59:15;98322.88;;;2.70;88.98
59831;BME280;45711;50.108;13.712;2023-02-04T02:01:43;98329.88;;;2.58;85.48
59831;BME280;45711;50.108;13.712;2023-02-04T02:04:10;98350.88;;;2.53;85.38
59831;BME280;45711;50.108;13.712;2023-02-04T02:06:38;98340.63;;;2.82;87.64
59831;BME280;45711;50.108;13.712;2023-02-04T02:09:05;98355.28;;;3.02;87.44
59831;BME280;45711;50.108;13.712;2023-02-04T02:11:32;98339.69;;;2.51;89.16
59831;BME280;45711;50.108;13.712;2023-02-04T02:13:58;98344.59;;;2.72;84.85
59831;BME280;45711;50.108;13.712;2023-02-04T02:16:24;98355.59;;;2.69;88.68
59831;BME280;45711;50.108;13.712;2023-02-04T02:18:49;98363.94;;;2.41;84.96
59831;BME280;45711;50.108;13.712;2023-02-04T02:21:20;98373.28;;;2.12;83.99
59831;BME280;45711;50.108;13.712;2023-02-04T02:23:51;98393.66;;;2.37;83.51
59831;BME280;45711;50.108;13.712;2023-02-04T02:26:19;98387.47;;;2.49;86.39
59831;BME280;45711;50.108;13.712;2023-02-04T02:28:46;98409.66;;;2.42;82.52
59831;BME280;45711;50.108;13.712;2023-02-04T02:31:12;98430.47;;;2.57;85.84
59831;BME280;45711;50.108;13.712;2023-02-04T02:33:38;98417.19;;;2.95;86.47
59831;BME280;45711;50.108;13.712;2023-02-04T02:36:04;98427.38;;;2.66;80.46
59831;BME280;45711;50.108;13.712;2023-02-04T02:38:31;98433.19;;;2.50;87.97
59831;BME280;45711;50.108;13.712;2023-02-04T02:40:58;98441.97;;;2.75;84.12
59831;BME280;45711;50.108;13.712;2023-02-04T02:43:26;98454.25;;;2.88;86.50
59831;BME280;45711;50.108;13.712;2023-02-04T02:45:54;98470.72;;;2.27;79.54
59831;BME280;45711;50.108;13.712;2023-02-04T02:48:21;98472.09;;;2.68;84.44
59831;BME280;45711;50.108;13.712;2023-02-04T02:50:47;98486.97;;;2.24;80.97
59831;BME280;45711;50.108;13.712;2023-02-04T02:53:15;98495.41;;;2.39;80.80
59831;BME280;45711;50.108;13.712;2023-02-04T02:55:41;98475.78;;;2.29;79.89
59831;BME280;45711;50.108;13.712;2023-02-04T02:58:13;98510.91;;;2.29;85.91
59831;BME280;45711;50.108;13.712;2023-02-04T03:00:39;98523.38;;;2.15;80.07
59831;BME280;45711;50.108;13.712;2023-02-04T03:03:08;98532.72;;;2.11;82.47
59831;BME280;45711;50.108;13.712;2023-02-04T03:05:39;98529.28;;;2.11;83.16
59831;BME280;45711;50.108;13.712;2023-02-04T03:08:06;98540.53;;;2.38;80.83
59831;BME280;45711;50.108;13.712;2023-02-04T03:10:32;98545.13;;;2.56;81.93
59831;BME280;45711;50.108;13.712;2023-02-04T03:12:58;98554.88;;;2.55;86.94
59831;BME280;45711;50.108;13.712;2023-02-04T03:15:25;98552.00;;;2.18;81.92
59831;BME280;45711;50.108;13.712;2023-02-04T03:17:51;98550.03;;;2.00;79.74
59831;BME280;45711;50.108;13.712;2023-02-04T03:20:21;98563.06;;;1.75;79.58
59831;BME280;45711;50.108;13.712;2023-02-04T03:22:48;98574.72;;;2.26;82.88
59831;BME280;45711;50.108;13.712;2023-02-04T03:25:14;98572.91;;;2.13;86.11
59831;BME280;45711;50.108;13.712;2023-02-04T03:27:39;98582.41;;;2.34;84.90
59831;BME280;45711;50.108;13.712;2023-02-04T03:30:06;98594.09;;;1.87;82.73
59831;BME280;45711;50.108;13.712;2023-02-04T03:32:34;98587.03;;;1.81;84.78
59831;BME280;45711;50.108;13.712;2023-02-04T03:35:00;98597.09;;;2.17;87.32
59831;BME280;45711;50.108;13.712;2023-02-04T03:37:25;98617.00;;;2.13;80.90
59831;BME280;45711;50.108;13.712;2023-02-04T03:39:51;98607.94;;;1.75;83.30
59831;BME280;45711;50.108;13.712;2023-02-04T03:42:16;98621.44;;;2.25;86.21
59831;BME280;45711;50.108;13.712;2023-02-04T03:44:42;98619.28;;;1.83;79.58
59831;BME280;45711;50.108;13.712;2023-02-04T03:47:07;98618.47;;;2.02;81.06
59831;BME280;45711;50.108;13.712;2023-02-04T03:49:34;98636.75;;;1.97;84.41
59831;BME280;45711;50.108;13.712;2023-02-04T03:52:00;98640.16;;;2.24;86.87
59831;BME280;45711;50.108;13.712;2023-02-04T03:54:26;98647.03;;;2.32;82.85
59831;BME280;45711;50.108;13.712;2023-02-04T03:56:51;98663.69;;;2.32;83.74
59831;BME280;45711;50.108;13.712;2023-02-04T03:59:17;98644.66;;;1.97;81.04
59831;BME280;45711;50.108;13.712;2023-02-04T04:01:42;98661.69;;;2.21;81.38
59831;BME280;45711;50.108;13.712;2023-02-04T04:04:08;98664.16;;;2.03;81.22
59831;BME280;45711;50.108;13.712;2023-02-04T04:06:35;98680.59;;;1.71;82.38
59831;BME280;45711;50.108;13.712;2023-02-04T04:09:00;98681.63;;;1.90;82.15
59831;BME280;45711;50.108;13.712;2023-02-04T04:11:26;98693.19;;;2.16;88.58
59831;BME280;45711;50.108;13.712;2023-02-04T04:13:51;98697.47;;;1.70;84.19
59831;BME280;45711;50.108;13.712;2023-02-04T04:16:17;98696.41;;;1.45;82.67
59831;BME280;45711;50.108;13.712;2023-02-04T04:18:44;98702.94;;;1.62;83.82
59831;BME280;45711;50.108;13.712;2023-02-04T04:21:10;98717.75;;;2.03;88.58
59831;BME280;45711;50.108;13.712;2023-02-04T04:23:37;98730.94;;;1.76;81.70
59831;BME280;45711;50.108;13.712;2023-02-04T04:26:03;98724.88;;;2.09;88.24
59831;BME280;45711;50.108;13.712;2023-02-04T04:28:28;98734.25;;;1.17;81.28
59831;BME280;45711;50.108;13.712;2023-02-04T04:30:54;98748.94;;;1.46;81.89
59831;BME280;45711;50.108;13.712;2023-02-04T04:33:19;98755.81;;;1.28;82.80
59831;BME280;45711;50.108;13.712;2023-02-04T04:35:45;98775.56;;;1.58;82.86
59831;BME280;45711;50.108;13.712;2023-02-04T04:38:10;98779.09;;;1.92;87.82
59831;BME280;45711;50.108;13.712;2023-02-04T04:40:37;98787.81;;;1.86;85.35
59831;BME280;45711;50.108;13.712;2023-02-04T04:43:03;98799.19;;;2.13;77.64
59831;BME280;45711;50.108;13.712;2023-02-04T04:45:29;98804.34;;;1.40;79.23
59831;BME280;45711;50.108;13.712;2023-02-04T04:47:54;98816.59;;;1.74;81.37
59831;BME280;45711;50.108;13.712;2023-02-04T04:50:20;98824.16;;;1.84;78.72
59831;BME280;45711;50.108;13.712;2023-02-04T04:52:45;98838.59;;;1.33;79.16
59831;BME280;45711;50.108;13.712;2023-02-04T04:55:11;98842.91;;;1.47;82.95
59831;BME280;45711;50.108;13.712;2023-02-04T04:57:38;98850.78;;;1.41;80.69
59831;BME280;45711;50.108;13.712;2023-02-04T05:00:05;98863.16;;;1.88;87.46
59831;BME280;45711;50.108;13.712;2023-02-04T05:02:31;98864.84;;;2.29;85.15
59831;BME280;45711;50.108;13.712;2023-02-04T05:04:57;98871.97;;;2.55;82.58
59831;BME280;45711;50.108;13.712;2023-02-04T05:07:23;98877.78;;;1.97;75.66
59831;BME280;45711;50.108;13.712;2023-02-04T05:09:48;98875.19;;;2.11;80.99
59831;BME280;45711;50.108;13.712;2023-02-04T05:12:14;98886.81;;;1.68;77.38
59831;BME280;45711;50.108;13.712;2023-02-04T05:14:41;98893.63;;;2.04;82.08
59831;BME280;45711;50.108;13.712;2023-02-04T05:17:06;98894.69;;;2.10;79.72
59831;BME280;45711;50.108;13.712;2023-02-04T05:19:32;98893.97;;;1.74;78.82
59831;BME280;45711;50.108;13.712;2023-02-04T05:21:57;98907.63;;;1.98;85.13
59831;BME280;45711;50.108;13.712;2023-02-04T05:24:26;98911.53;;;2.22;83.92
59831;BME280;45711;50.108;13.712;2023-02-04T05:26:51;98909.72;;;2.16;81.86
59831;BME280;45711;50.108;13.712;2023-02-04T05:29:17;98921.25;;;2.08;82.15
59831;BME280;45711;50.108;13.712;2023-02-04T05:31:44;98925.66;;;2.62;85.52
59831;BME280;45711;50.108;13.712;2023-02-04T05:34:09;98937.47;;;1.92;81.28
59831;BME280;45711;50.108;13.712;2023-02-04T05:36:35;98939.53;;;1.55;80.41
59831;BME280;45711;50.108;13.712;2023-02-04T05:39:00;98938.13;;;1.59;83.33
59831;BME280;45711;50.108;13.712;2023-02-04T05:41:26;98947.63;;;1.88;84.47
59831;BME280;45711;50.108;13.712;2023-02-04T05:43:51;98959.28;;;2.20;81.99
59831;BME280;45711;50.108;13.712;2023-02-04T05:46:17;98963.41;;;1.82;82.18
59831;BME280;45711;50.108;13.712;2023-02-04T05:48:44;98971.97;;;1.84;81.60
59831;BME280;45711;50.108;13.712;2023-02-04T05:51:10;98972.00;;;1.56;79.69
59831;BME280;45711;50.108;13.712;2023-02-04T05:53:35;98992.28;;;1.48;83.96
59831;BME280;45711;50.108;13.712;2023-02-04T05:56:01;98995.81;;;1.69;84.03
59831;BME280;45711;50.108;13.712;2023-02-04T05:58:26;98998.50;;;1.75;80.28
59831;BME280;45711;50.108;13.712;2023-02-04T06:00:57;99012.13;;;1.79;82.00
59831;BME280;45711;50.108;13.712;2023-02-04T06:03:23;99023.72;;;1.85;84.43
59831;BME280;45711;50.108;13.712;2023-02-04T06:05:50;99029.19;;;1.48;82.28
59831;BME280;45711;50.108;13.712;2023-02-04T06:08:15;99042.84;;;1.59;82.93
59831;BME280;45711;50.108;13.712;2023-02-04T06:10:41;99051.38;;;1.33;80.33
59831;BME280;45711;50.108;13.712;2023-02-04T06:13:06;99066.28;;;1.19;85.53
59831;BME280;45711;50.108;13.712;2023-02-04T06:15:32;99076.34;;;1.58;81.64
59831;BME280;45711;50.108;13.712;2023-02-04T06:17:58;99066.09;;;2.11;84.71
59831;BME280;45711;50.108;13.712;2023-02-04T06:20:23;99078.34;;;1.28;77.63
59831;BME280;45711;50.108;13.712;2023-02-04T06:22:50;99087.66;;;1.52;84.56
59831;BME280;45711;50.108;13.712;2023-02-04T06:25:16;99096.03;;;1.90;83.94
59831;BME280;45711;50.108;13.712;2023-02-04T06:27:41;99102.38;;;1.68;81.24
59831;BME280;45711;50.108;13.712;2023-02-04T06:30:09;99112.50;;;1.36;78.26
59831;BME280;45711;50.108;13.712;2023-02-04T06:32:34;99114.00;;;1.73;80.09
59831;BME280;45711;50.108;13.712;2023-02-04T06:35:00;99129.75;;;1.39;72.64
59831;BME280;45711;50.108;13.712;2023-02-04T06:37:25;99133.53;;;0.72;72.99
59831;BME280;45711;50.108;13.712;2023-02-04T06:39:52;99144.59;;;1.40;84.34
59831;BME280;45711;50.108;13.712;2023-02-04T06:42:19;99155.50;;;1.37;72.90
59831;BME280;45711;50.108;13.712;2023-02-04T06:44:44;99161.72;;;1.50;77.46
59831;BME280;45711;50.108;13.712;2023-02-04T06:47:10;99168.75;;;1.00;70.99
59831;BME280;45711;50.108;13.712;2023-02-04T06:49:36;99167.06;;;1.36;80.85
59831;BME280;45711;50.108;13.712;2023-02-04T06:52:01;99174.34;;;1.55;77.18
59831;BME280;45711;50.108;13.712;2023-02-04T06:54:27;99187.78;;;1.39;71.15
59831;BME280;45711;50.108;13.712;2023-02-04T06:56:54;99185.00;;;1.68;80.86
59831;BME280;45711;50.108;13.712;2023-02-04T06:59:19;99195.25;;;1.14;72.33
59831;BME280;45711;50.108;13.712;2023-02-04T07:01:45;99210.44;;;1.33;70.49
59831;BME280;45711;50.108;13.712;2023-02-04T07:04:10;99208.50;;;1.42;73.40
59831;BME280;45711;50.108;13.712;2023-02-04T07:06:36;99215.03;;;1.24;77.65
59831;BME280;45711;50.108;13.712;2023-02-04T07:09:01;99224.66;;;1.54;82.94
59831;BME280;45711;50.108;13.712;2023-02-04T07:11:27;99241.34;;;1.39;74.31
59831;BME280;45711;50.108;13.712;2023-02-04T07:13:57;99244.13;;;1.31;76.44
59831;BME280;45711;50.108;13.712;2023-02-04T07:16:22;99252.63;;;0.97;72.91
59831;BME280;45711;50.108;13.712;2023-02-04T07:18:48;99245.63;;;1.40;83.04
59831;BME280;45711;50.108;13.712;2023-02-04T07:21:13;99256.06;;;0.83;75.20
59831;BME280;45711;50.108;13.712;2023-02-04T07:23:39;99257.31;;;1.31;76.35
59831;BME280;45711;50.108;13.712;2023-02-04T07:26:05;99267.88;;;1.53;75.99
59831;BME280;45711;50.108;13.712;2023-02-04T07:28:30;99261.16;;;1.50;81.03
59831;BME280;45711;50.108;13.712;2023-02-04T07:30:57;99264.44;;;0.86;77.33
59831;BME280;45711;50.108;13.712;2023-02-04T07:33:23;99271.78;;;1.20;82.31
59831;BME280;45711;50.108;13.712;2023-02-04T07:35:48;99265.97;;;1.10;77.00
59831;BME280;45711;50.108;13.712;2023-02-04T07:38:19;99282.34;;;1.06;80.29
59831;BME280;45711;50.108;13.712;2023-02-04T07:40:44;99281.13;;;1.59;82.47
59831;BME280;45711;50.108;13.712;2023-02-04T07:43:35;99284.06;;;1.13;78.54
59831;BME280;45711;50.108;13.712;2023-02-04T07:46:04;99286.00;;;1.41;83.14
59831;BME280;45711;50.108;13.712;2023-02-04T07:48:30;99278.03;;;1.92;77.62
59831;BME280;45711;50.108;13.712;2023-02-04T07:50:56;99281.06;;;1.95;79.93
59831;BME280;45711;50.108;13.712;2023-02-04T07:53:21;99278.84;;;1.92;82.03
59831;BME280;45711;50.108;13.712;2023-02-04T07:55:48;99280.75;;;1.41;80.74
59831;BME280;45711;50.108;13.712;2023-02-04T07:58:14;99292.81;;;2.36;78.96
59831;BME280;45711;50.108;13.712;2023-02-04T08:00:42;99296.41;;;4.13;72.08
59831;BME280;45711;50.108;13.712;2023-02-04T08:03:20;99301.75;;;2.97;79.51
59831;BME280;45711;50.108;13.712;2023-02-04T08:05:46;99292.34;;;2.88;76.32
59831;BME280;45711;50.108;13.712;2023-02-04T08:08:11;99299.47;;;2.88;80.59
59831;BME280;45711;50.108;13.712;2023-02-04T08:10:37;99309.41;;;3.75;75.19
59831;BME280;45711;50.108;13.712;2023-02-04T08:13:02;99319.97;;;2.30;73.92
59831;BME280;45711;50.108;13.712;2023-02-04T08:15:28;99315.03;;;1.98;79.05
59831;BME280;45711;50.108;13.712;2023-02-04T08:17:54;99324.09;;;2.11;79.31
59831;BME280;45711;50.108;13.712;2023-02-04T08:20:21;99333.81;;;2.53;81.66
59831;BME280;45711;50.108;13.712;2023-02-04T08:22:46;99337.63;;;2.22;81.96
59831;BME280;45711;50.108;13.712;2023-02-04T08:25:12;99336.44;;;1.67;78.93
59831;BME280;45711;50.108;13.712;2023-02-04T08:27:37;99355.16;;;1.87;83.29
59831;BME280;45711;50.108;13.712;2023-02-04T08:30:04;99353.84;;;1.62;82.22
59831;BME280;45711;50.108;13.712;2023-02-04T08:32:30;99361.16;;;1.45;79.59
59831;BME280;45711;50.108;13.712;2023-02-04T08:34:56;99366.88;;;0.74;82.41
59831;BME280;45711;50.108;13.712;2023-02-04T08:37:23;99359.81;;;0.52;82.92
59831;BME280;45711;50.108;13.712;2023-02-04T08:39:49;99369.31;;;0.61;84.23
59831;BME280;45711;50.108;13.712;2023-02-04T08:42:14;99372.81;;;1.06;85.30
59831;BME280;45711;50.108;13.712;2023-02-04T08:44:50;99384.72;;;1.02;82.16
59831;BME280;45711;50.108;13.712;2023-02-04T08:47:16;99386.59;;;1.08;81.81
59831;BME280;45711;50.108;13.712;2023-02-04T08:49:43;99395.97;;;1.70;85.50
59831;BME280;45711;50.108;13.712;2023-02-04T08:52:09;99406.06;;;2.03;82.80
59831;BME280;45711;50.108;13.712;2023-02-04T08:54:36;99410.63;;;1.58;77.05
59831;BME280;45711;50.108;13.712;2023-02-04T08:57:01;99415.09;;;1.57;79.15
59831;BME280;45711;50.108;13.712;2023-02-04T08:59:27;99426.19;;;1.38;81.43
59831;BME280;45711;50.108;13.712;2023-02-04T09:01:52;99427.25;;;1.73;80.64
59831;BME280;45711;50.108;13.712;2023-02-04T09:04:19;99436.34;;;1.85;77.22
59831;BME280;45711;50.108;13.712;2023-02-04T09:06:45;99448.66;;;2.14;82.28
59831;BME280;45711;50.108;13.712;2023-02-04T09:09:12;99448.28;;;3.38;73.31
59831;BME280;45711;50.108;13.712;2023-02-04T09:11:39;99448.06;;;3.05;70.46
59831;BME280;45711;50.108;13.712;2023-02-04T09:14:05;99447.97;;;2.91;68.77
59831;BME280;45711;50.108;13.712;2023-02-04T09:16:30;99440.94;;;2.56;70.16
59831;BME280;45711;50.108;13.712;2023-02-04T09:18:56;99459.38;;;2.92;75.29
59831;BME280;45711;50.108;13.712;2023-02-04T09:21:23;99462.28;;;2.75;73.11
59831;BME280;45711;50.108;13.712;2023-02-04T09:23:48;99461.03;;;2.50;72.95
59831;BME280;45711;50.108;13.712;2023-02-04T09:26:14;99472.28;;;2.37;68.95
59831;BME280;45711;50.108;13.712;2023-02-04T09:28:41;99477.56;;;2.01;68.95
59831;BME280;45711;50.108;13.712;2023-02-04T09:31:07;99485.94;;;2.41;76.13
59831;BME280;45711;50.108;13.712;2023-02-04T09:33:33;99479.25;;;2.09;68.52
59831;BME280;45711;50.108;13.712;2023-02-04T09:35:59;99489.09;;;2.00;67.99
59831;BME280;45711;50.108;13.712;2023-02-04T09:38:25;99495.41;;;1.84;72.05
59831;BME280;45711;50.108;13.712;2023-02-04T09:40:53;99501.31;;;2.01;78.20
59831;BME280;45711;50.108;13.712;2023-02-04T09:43:22;99510.06;;;1.72;69.00
59831;BME280;45711;50.108;13.712;2023-02-04T09:45:51;99514.34;;;1.73;65.81
59831;BME280;45711;50.108;13.712;2023-02-04T09:48:18;99511.44;;;2.34;75.76
59831;BME280;45711;50.108;13.712;2023-02-04T09:50:44;99519.22;;;2.20;77.76
59831;BME280;45711;50.108;13.712;2023-02-04T09:53:12;99523.22;;;2.67;72.94
59831;BME280;45711;50.108;13.712;2023-02-04T09:55:40;99534.59;;;2.89;67.39
59831;BME280;45711;50.108;13.712;2023-02-04T09:58:12;99538.59;;;2.42;65.50
59831;BME280;45711;50.108;13.712;2023-02-04T10:00:38;99531.06;;;2.24;65.72
59831;BME280;45711;50.108;13.712;2023-02-04T10:03:13;99528.81;;;2.07;67.78
59831;BME280;45711;50.108;13.712;2023-02-04T10:05:39;99532.25;;;2.58;71.55
59831;BME280;45711;50.108;13.712;2023-02-04T10:08:05;99543.81;;;2.21;65.13
59831;BME280;45711;50.108;13.712;2023-02-04T10:10:30;99537.69;;;2.35;66.75
59831;BME280;45711;50.108;13.712;2023-02-04T10:12:59;99539.03;;;2.46;67.38
59831;BME280;45711;50.108;13.712;2023-02-04T10:15:26;99542.16;;;2.71;64.87
59831;BME280;45711;50.108;13.712;2023-02-04T10:17:53;99531.25;;;3.02;73.52
59831;BME280;45711;50.108;13.712;2023-02-04T10:20:23;99523.75;;;3.27;66.90
59831;BME280;45711;50.108;13.712;2023-02-04T10:22:51;99537.91;;;3.41;60.80
59831;BME280;45711;50.108;13.712;2023-02-04T10:25:20;99536.00;;;3.07;64.85
59831;BME280;45711;50.108;13.712;2023-02-04T10:27:47;99535.63;;;3.10;72.85
59831;BME280;45711;50.108;13.712;2023-02-04T10:30:17;99548.19;;;2.86;64.20
59831;BME280;45711;50.108;13.712;2023-02-04T10:32:43;99544.47;;;2.81;74.86
59831;BME280;45711;50.108;13.712;2023-02-04T10:35:12;99551.00;;;2.63;69.35
59831;BME280;45711;50.108;13.712;2023-02-04T10:37:40;99549.97;;;3.00;75.37
59831;BME280;45711;50.108;13.712;2023-02-04T10:40:09;99554.00;;;3.18;75.07
59831;BME280;45711;50.108;13.712;2023-02-04T10:42:47;99554.28;;;2.87;73.34
59831;BME280;45711;50.108;13.712;2023-02-04T10:45:21;99546.94;;;3.03;73.61
59831;BME280;45711;50.108;13.712;2023-02-04T10:47:49;99558.59;;;2.66;65.83
59831;BME280;45711;50.108;13.712;2023-02-04T10:50:17;99569.44;;;2.93;74.87
59831;BME280;45711;50.108;13.712;2023-02-04T10:52:46;99566.06;;;2.63;72.97
59831;BME280;45711;50.108;13.712;2023-02-04T10:55:14;99563.19;;;2.79;71.08
59831;BME280;45711;50.108;13.712;2023-02-04T10:57:42;99575.34;;;2.95;75.76
59831;BME280;45711;50.108;13.712;2023-02-04T11:00:15;99564.03;;;2.29;64.89
59831;BME280;45711;50.108;13.712;2023-02-04T11:02:42;99562.91;;;2.74;76.92
59831;BME280;45711;50.108;13.712;2023-02-04T11:05:11;99567.19;;;2.54;67.08
59831;BME280;45711;50.108;13.712;2023-02-04T11:07:38;99581.53;;;3.02;77.53
59831;BME280;45711;50.108;13.712;2023-02-04T11:10:05;99568.00;;;2.54;69.01
59831;BME280;45711;50.108;13.712;2023-02-04T11:12:37;99574.53;;;2.94;75.05
59831;BME280;45711;50.108;13.712;2023-02-04T11:15:05;99576.97;;;2.74;71.23
59831;BME280;45711;50.108;13.712;2023-02-04T11:17:33;99580.69;;;2.80;74.96
59831;BME280;45711;50.108;13.712;2023-02-04T11:19:59;99580.16;;;2.70;64.01
59831;BME280;45711;50.108;13.712;2023-02-04T11:22:40;99581.63;;;2.94;63.14
59831;BME280;45711;50.108;13.712;2023-02-04T11:25:32;99578.63;;;3.18;70.06
59831;BME280;45711;50.108;13.712;2023-02-04T11:27:58;99582.66;;;3.14;65.20
59831;BME280;45711;50.108;13.712;2023-02-04T11:30:30;99580.66;;;2.59;70.79
59831;BME280;45711;50.108;13.712;2023-02-04T11:33:00;99580.63;;;2.22;64.64
59831;BME280;45711;50.108;13.712;2023-02-04T11:35:27;99588.78;;;2.42;68.41
59831;BME280;45711;50.108;13.712;2023-02-04T11:37:53;99584.25;;;2.72;72.25
59831;BME280;45711;50.108;13.712;2023-02-04T11:40:22;99594.41;;;2.90;77.04
59831;BME280;45711;50.108;13.712;2023-02-04T11:42:55;99587.56;;;2.60;70.88
59831;BME280;45711;50.108;13.712;2023-02-04T11:45:25;99594.78;;;2.87;72.09
59831;BME280;45711;50.108;13.712;2023-02-04T11:47:51;99591.88;;;2.82;74.49
59831;BME280;45711;50.108;13.712;2023-02-04T11:50:20;99600.16;;;2.58;66.97
59831;BME280;45711;50.108;13.712;2023-02-04T11:52:46;99586.66;;;2.67;68.64
59831;BME280;45711;50.108;13.712;2023-02-04T11:55:12;99596.03;;;2.91;67.45
59831;BME280;45711;50.108;13.712;2023-02-04T11:57:38;99596.38;;;3.03;69.65
59831;BME280;45711;50.108;13.712;2023-02-04T12:00:12;99592.59;;;2.91;64.55
59831;BME280;45711;50.108;13.712;2023-02-04T12:02:43;99599.66;;;2.84;68.62
59831;BME280;45711;50.108;13.712;2023-02-04T12:05:11;99601.78;;;3.16;72.33
59831;BME280;45711;50.108;13.712;2023-02-04T12:07:37;99594.41;;;3.33;66.15
59831;BME280;45711;50.108;13.712;2023-02-04T12:10:11;99607.56;;;3.48;70.77
59831;BME280;45711;50.108;13.712;2023-02-04T12:12:40;99602.31;;;3.05;69.72
59831;BME280;45711;50.108;13.712;2023-02-04T12:15:13;99601.78;;;2.95;69.92
59831;BME280;45711;50.108;13.712;2023-02-04T12:17:39;99599.91;;;2.89;66.19
59831;BME280;45711;50.108;13.712;2023-02-04T12:20:10;99603.38;;;3.32;67.55
59831;BME280;45711;50.108;13.712;2023-02-04T12:22:35;99595.69;;;3.37;67.06
59831;BME280;45711;50.108;13.712;2023-02-04T12:25:01;99602.53;;;3.53;68.69
59831;BME280;45711;50.108;13.712;2023-02-04T12:27:26;99596.06;;;3.34;66.32
59831;BME280;45711;50.108;13.712;2023-02-04T12:29:52;99602.66;;;2.81;63.17
59831;BME280;45711;50.108;13.712;2023-02-04T12:32:19;99601.19;;;2.78;66.14
59831;BME280;45711;50.108;13.712;2023-02-04T12:34:44;99601.41;;;2.98;69.47
59831;BME280;45711;50.108;13.712;2023-02-04T12:37:10;99604.63;;;2.93;60.54
59831;BME280;45711;50.108;13.712;2023-02-04T12:39:35;99601.28;;;2.48;60.03
59831;BME280;45711;50.108;13.712;2023-02-04T12:42:01;99598.38;;;2.80;63.53
59831;BME280;45711;50.108;13.712;2023-02-04T12:44:28;99602.66;;;2.44;62.23
59831;BME280;45711;50.108;13.712;2023-02-04T12:46:54;99596.00;;;2.85;63.01
59831;BME280;45711;50.108;13.712;2023-02-04T12:49:21;99604.22;;;2.75;69.07
59831;BME280;45711;50.108;13.712;2023-02-04T12:51:49;99596.88;;;2.92;67.79
59831;BME280;45711;50.108;13.712;2023-02-04T12:54:17;99604.69;;;3.00;74.44
59831;BME280;45711;50.108;13.712;2023-02-04T12:56:43;99594.91;;;2.79;63.13
59831;BME280;45711;50.108;13.712;2023-02-04T12:59:09;99594.97;;;2.86;66.05